createdAt,value
2023-04-22T00:00:43.660Z,76.22
2023-04-22T00:03:11.243Z,79.35
2023-04-22T00:05:38.863Z,79.82
2023-04-22T00:08:06.440Z,86.25
2023-04-22T00:10:33.905Z,79.72
2023-04-22T00:13:01.456Z,67.93
2023-04-22T00:15:28.856Z,78.50
2023-04-22T00:17:57.845Z,79.28
2023-04-22T00:20:25.474Z,79.15
2023-04-22T00:22:52.791Z,74.28
2023-04-22T00:25:20.053Z,68.18
2023-04-22T00:27:47.537Z,69.65
2023-04-22T00:30:15.297Z,54.17
2023-04-22T00:32:42.802Z,63.38
2023-04-22T00:35:10.254Z,47.65
2023-04-22T00:37:37.680Z,49.95
2023-04-22T00:40:06.563Z,47.50
2023-04-22T00:42:33.941Z,40.92
2023-04-22T00:45:01.618Z,40.70
2023-04-22T00:47:29.109Z,43.45
2023-04-22T00:49:56.359Z,48.88
2023-04-22T00:52:24.050Z,53.53
2023-04-22T00:54:52.079Z,54.17
2023-04-22T00:57:19.351Z,47.85
2023-04-22T00:59:46.892Z,46.67
2023-04-22T01:02:14.303Z,41.63
2023-04-22T01:04:41.657Z,35.38
2023-04-22T01:07:08.737Z,36.28
2023-04-22T01:09:36.309Z,32.55
2023-04-22T01:12:03.768Z,31.60
2023-04-22T01:14:31.430Z,27.42
2023-04-22T01:16:58.728Z,30.00
2023-04-22T01:19:26.365Z,26.60
2023-04-22T01:21:53.724Z,27.60
2023-04-22T01:24:21.889Z,28.50
2023-04-22T01:26:49.003Z,26.70
2023-04-22T01:29:16.283Z,28.75
2023-04-22T01:31:43.567Z,30.27
2023-04-22T01:34:18.395Z,24.77
2023-04-22T01:36:45.584Z,28.88
2023-04-22T01:39:14.077Z,43.08
2023-04-22T01:41:41.837Z,31.73
2023-04-22T01:44:09.322Z,31.70
2023-04-22T01:46:36.931Z,35.08
2023-04-22T01:49:04.823Z,32.00
2023-04-22T01:51:32.291Z,26.90
2023-04-22T01:53:59.348Z,25.60
2023-04-22T01:56:26.850Z,31.02
2023-04-22T01:58:53.951Z,22.92
2023-04-22T02:01:21.384Z,22.55
2023-04-22T02:03:48.728Z,24.27
2023-04-22T02:06:15.917Z,19.17
2023-04-22T02:08:43.465Z,25.73
2023-04-22T02:11:10.549Z,26.52
2023-04-22T02:13:41.368Z,22.58
2023-04-22T02:16:09.191Z,21.65
2023-04-22T02:18:36.695Z,15.45
2023-04-22T02:21:04.122Z,15.98
2023-04-22T02:23:31.229Z,14.80
2023-04-22T02:25:58.305Z,16.45
2023-04-22T02:28:25.785Z,18.45
2023-04-22T02:30:53.126Z,23.13
2023-04-22T02:33:23.016Z,17.98
2023-04-22T02:35:53.723Z,17.90
2023-04-22T02:38:23.936Z,16.83
2023-04-22T02:40:51.333Z,18.15
2023-04-22T02:43:18.913Z,15.82
2023-04-22T02:45:45.965Z,15.02
2023-04-22T02:48:13.455Z,17.20
2023-04-22T02:50:42.837Z,17.35
2023-04-22T02:53:09.971Z,22.33
2023-04-22T02:55:44.965Z,28.08
2023-04-22T02:58:12.344Z,16.20
2023-04-22T03:00:39.655Z,20.27
2023-04-22T03:03:06.945Z,30.58
2023-04-22T03:05:35.387Z,17.35
2023-04-22T03:08:02.971Z,28.25
2023-04-22T03:10:32.508Z,22.58
2023-04-22T03:12:59.550Z,20.45
2023-04-22T03:15:27.372Z,19.95
2023-04-22T03:17:55.088Z,18.17
2023-04-22T03:20:23.451Z,17.30
2023-04-22T03:22:51.194Z,18.00
2023-04-22T03:25:19.400Z,21.17
2023-04-22T03:27:53.153Z,15.40
2023-04-22T03:30:23.839Z,17.42
2023-04-22T03:32:53.223Z,19.75
2023-04-22T03:35:25.453Z,18.98
2023-04-22T03:37:57.588Z,26.25
2023-04-22T03:40:30.352Z,19.27
2023-04-22T03:42:59.615Z,19.70
2023-04-22T03:45:27.267Z,19.85
2023-04-22T03:48:15.416Z,16.55
2023-04-22T03:50:48.562Z,19.52
2023-04-22T03:53:16.914Z,16.33
2023-04-22T03:55:45.150Z,17.27
2023-04-22T03:58:14.096Z,15.30
2023-04-22T04:00:41.308Z,32.10
2023-04-22T04:03:15.815Z,17.88
2023-04-22T04:05:46.040Z,18.65
2023-04-22T04:08:13.559Z,43.97
2023-04-22T04:10:41.531Z,20.55
2023-04-22T04:13:09.106Z,22.05
2023-04-22T04:15:49.483Z,22.10
2023-04-22T04:18:21.308Z,9.88
2023-04-22T04:20:51.698Z,9.05
2023-04-22T04:23:19.115Z,11.07
2023-04-22T04:25:47.990Z,8.75
2023-04-22T04:28:15.211Z,7.57
2023-04-22T04:30:42.987Z,12.35
2023-04-22T04:33:11.840Z,7.78
2023-04-22T04:35:41.701Z,8.30
2023-04-22T04:38:12.792Z,8.48
2023-04-22T04:40:40.428Z,11.63
2023-04-22T04:43:12.676Z,8.38
2023-04-22T04:45:48.717Z,4.43
2023-04-22T04:48:24.546Z,8.27
2023-04-22T04:50:55.318Z,6.82
2023-04-22T04:53:25.550Z,7.47
2023-04-22T04:55:53.546Z,5.82
2023-04-22T04:58:23.268Z,6.50
2023-04-22T05:01:03.211Z,15.75
2023-04-22T05:03:30.916Z,13.60
2023-04-22T05:05:58.065Z,5.90
2023-04-22T05:08:25.579Z,5.32
2023-04-22T05:10:59.619Z,8.27
2023-04-22T05:13:27.377Z,5.60
2023-04-22T05:15:55.636Z,5.50
2023-04-22T05:18:23.679Z,5.25
2023-04-22T05:20:51.191Z,9.00
2023-04-22T05:23:21.070Z,8.32
2023-04-22T05:25:53.451Z,9.55
2023-04-22T05:28:20.900Z,7.10
2023-04-22T05:30:52.433Z,9.13
2023-04-22T05:33:20.145Z,5.93
2023-04-22T05:35:47.360Z,6.55
2023-04-22T05:38:15.064Z,12.60
2023-04-22T05:40:42.561Z,5.43
2023-04-22T05:43:12.302Z,10.00
2023-04-22T05:45:42.190Z,9.40
2023-04-22T05:48:12.449Z,5.80
2023-04-22T05:50:47.851Z,8.23
2023-04-22T05:53:15.608Z,6.05
2023-04-22T05:55:43.826Z,8.55
2023-04-22T05:58:11.759Z,7.25
2023-04-22T06:00:59.017Z,9.38
2023-04-22T06:03:45.705Z,8.38
2023-04-22T06:06:13.410Z,5.03
2023-04-22T06:08:43.418Z,4.50
2023-04-22T06:11:11.604Z,5.95
2023-04-22T06:13:38.774Z,8.43
2023-04-22T06:18:37.911Z,11.43
2023-04-22T06:21:11.533Z,20.95
2023-04-22T06:23:38.626Z,9.30
2023-04-22T06:26:05.734Z,5.45
2023-04-22T06:28:33.543Z,6.60
2023-04-22T06:31:09.638Z,7.35
2023-04-22T06:33:37.113Z,6.05
2023-04-22T06:36:04.848Z,4.97
2023-04-22T06:38:33.349Z,8.30
2023-04-22T06:41:21.971Z,8.15
2023-04-22T06:43:51.594Z,5.82
2023-04-22T06:46:19.224Z,6.35
2023-04-22T06:49:05.758Z,7.75
2023-04-22T06:51:51.612Z,8.20
2023-04-22T06:54:19.343Z,6.00
2023-04-22T06:56:46.693Z,6.60
2023-04-22T06:59:15.704Z,6.65
2023-04-22T07:01:43.005Z,6.05
2023-04-22T07:04:10.444Z,4.95
2023-04-22T07:06:37.613Z,5.05
2023-04-22T07:09:05.331Z,6.95
2023-04-22T07:11:32.793Z,5.90
2023-04-22T07:14:10.813Z,4.43
2023-04-22T07:16:38.743Z,6.90
2023-04-22T07:19:06.210Z,7.60
2023-04-22T07:21:33.721Z,8.98
2023-04-22T07:24:00.822Z,19.02
2023-04-22T07:26:28.252Z,6.10
2023-04-22T07:28:55.256Z,19.20
2023-04-22T07:31:31.939Z,10.18
2023-04-22T07:33:59.284Z,5.97
2023-04-22T07:36:26.665Z,8.73
2023-04-22T07:38:56.019Z,7.05
2023-04-22T07:41:23.228Z,6.50
2023-04-22T07:43:50.955Z,8.25
2023-04-22T07:46:17.987Z,5.53
2023-04-22T07:48:45.398Z,5.35
2023-04-22T07:51:12.502Z,6.20
2023-04-22T07:53:39.514Z,5.40
2023-04-22T07:56:06.609Z,8.80
2023-04-22T07:58:34.293Z,9.98
2023-04-22T08:01:01.786Z,5.10
2023-04-22T08:03:29.240Z,5.18
2023-04-22T08:05:58.029Z,7.13
2023-04-22T08:08:26.150Z,6.43
2023-04-22T08:10:53.838Z,5.47
2023-04-22T08:13:20.801Z,5.38
2023-04-22T08:15:48.036Z,7.20
2023-04-22T08:18:15.099Z,4.90
2023-04-22T08:20:42.413Z,5.63
2023-04-22T08:23:10.429Z,6.43
2023-04-22T08:25:37.855Z,6.18
2023-04-22T08:28:05.346Z,10.50
2023-04-22T08:30:32.747Z,6.38
2023-04-22T08:33:00.435Z,10.50
2023-04-22T08:35:27.910Z,9.95
2023-04-22T08:37:55.486Z,7.03
2023-04-22T08:40:22.886Z,9.02
2023-04-22T08:42:51.697Z,6.38
2023-04-22T08:45:18.933Z,9.82
2023-04-22T08:47:46.237Z,4.20
2023-04-22T08:50:13.387Z,9.57
2023-04-22T08:52:42.476Z,4.03
2023-04-22T08:55:10.272Z,8.63
2023-04-22T08:57:38.635Z,11.93
2023-04-22T09:00:08.655Z,5.72
2023-04-22T09:02:37.035Z,6.13
2023-04-22T09:05:06.151Z,4.95
2023-04-22T09:07:35.178Z,5.80
2023-04-22T09:10:02.600Z,4.70
2023-04-22T09:12:30.136Z,9.63
2023-04-22T09:14:57.405Z,11.18
2023-04-22T09:17:32.131Z,5.15
2023-04-22T09:20:00.465Z,5.90
2023-04-22T09:22:28.575Z,4.95
2023-04-22T09:24:55.978Z,4.32
2023-04-22T09:27:24.554Z,8.35
2023-04-22T09:29:55.380Z,4.72
2023-04-22T09:32:25.438Z,4.57
2023-04-22T09:34:54.411Z,8.13
2023-04-22T09:37:33.251Z,7.57
2023-04-22T09:40:10.247Z,7.75
2023-04-22T09:42:51.406Z,8.55
2023-04-22T09:45:28.949Z,6.97
2023-04-22T09:47:57.200Z,9.07
2023-04-22T09:50:25.188Z,7.43
2023-04-22T09:53:09.572Z,7.63
2023-04-22T09:55:39.718Z,9.40
2023-04-22T09:58:11.493Z,13.27
2023-04-22T10:00:59.372Z,6.00
2023-04-22T10:03:26.843Z,8.73
2023-04-22T10:05:54.143Z,5.40
2023-04-22T10:08:21.257Z,6.18
2023-04-22T10:10:48.669Z,10.43
2023-04-22T10:13:15.891Z,8.80
2023-04-22T10:15:51.484Z,6.45
2023-04-22T10:18:23.529Z,5.65
2023-04-22T10:20:51.256Z,10.77
2023-04-22T10:23:23.382Z,5.50
2023-04-22T10:25:54.598Z,9.50
2023-04-22T10:28:23.313Z,7.70
2023-04-22T10:30:50.749Z,8.90
2023-04-22T10:33:21.186Z,6.32
2023-04-22T10:36:08.689Z,4.63
2023-04-22T10:38:37.057Z,5.25
2023-04-22T10:41:04.217Z,7.68
2023-04-22T10:43:47.762Z,5.90
2023-04-22T10:46:42.222Z,7.50
2023-04-22T10:49:23.169Z,7.95
2023-04-22T10:52:01.093Z,7.82
2023-04-22T10:54:37.564Z,9.57
2023-04-22T10:57:05.872Z,4.93
2023-04-22T10:59:47.000Z,9.02
2023-04-22T11:02:16.071Z,4.15
2023-04-22T11:04:43.329Z,5.70
2023-04-22T11:07:26.035Z,5.78
2023-04-22T11:10:09.365Z,6.75
2023-04-22T11:12:39.483Z,10.98
2023-04-22T11:15:14.036Z,5.20
2023-04-22T11:17:50.502Z,11.75
2023-04-22T11:20:18.090Z,4.95
2023-04-22T11:22:50.691Z,7.20
2023-04-22T11:25:17.864Z,5.18
2023-04-22T11:27:45.772Z,7.85
2023-04-22T11:30:17.862Z,7.05
2023-04-22T11:32:49.342Z,8.77
2023-04-22T11:35:20.740Z,17.42
2023-04-22T11:37:52.228Z,7.47
2023-04-22T11:40:30.804Z,5.30
2023-04-22T11:43:00.926Z,4.13
2023-04-22T11:45:32.546Z,11.50
2023-04-22T11:48:00.382Z,27.17
2023-04-22T11:50:32.184Z,6.88
2023-04-22T11:53:17.028Z,8.68
2023-04-22T11:55:44.907Z,8.90
2023-04-22T11:58:17.298Z,6.53
2023-04-22T12:00:50.829Z,7.22
2023-04-22T12:03:26.195Z,11.82
2023-04-22T12:05:54.699Z,6.57
2023-04-22T12:08:23.764Z,11.82
2023-04-22T12:10:55.030Z,13.25
2023-04-22T12:13:26.905Z,7.68
2023-04-22T12:15:56.570Z,9.63
2023-04-22T12:18:33.009Z,10.27
2023-04-22T12:21:21.637Z,12.85
2023-04-22T12:23:58.558Z,10.05
2023-04-22T12:26:29.573Z,13.35
2023-04-22T12:28:57.922Z,6.28
2023-04-22T12:31:25.277Z,6.28
2023-04-22T12:33:52.469Z,8.68
2023-04-22T12:36:20.992Z,12.02
2023-04-22T12:38:48.250Z,8.93
2023-04-22T12:41:20.577Z,9.27
2023-04-22T12:43:47.909Z,6.88
2023-04-22T12:46:14.981Z,7.13
2023-04-22T12:48:42.879Z,15.80
2023-04-22T12:51:10.078Z,28.50
2023-04-22T12:53:40.478Z,34.15
2023-04-22T12:56:07.511Z,40.15
2023-04-22T12:58:34.711Z,34.22
2023-04-22T13:01:02.091Z,51.72
2023-04-22T13:03:29.376Z,43.45
2023-04-22T13:05:56.542Z,44.78
2023-04-22T13:08:23.669Z,59.08
2023-04-22T13:10:51.024Z,57.35
2023-04-22T13:13:19.352Z,63.63
2023-04-22T13:15:49.848Z,51.47
2023-04-22T13:18:17.579Z,56.08
2023-04-22T13:20:44.966Z,73.30
2023-04-22T13:23:13.416Z,66.60
2023-04-22T13:25:40.750Z,47.42
2023-04-22T13:28:11.076Z,30.60
2023-04-22T13:30:38.780Z,35.60
2023-04-22T13:33:05.715Z,33.15
2023-04-22T13:35:33.552Z,49.08
2023-04-22T13:38:01.413Z,36.25
2023-04-22T13:40:28.900Z,33.40
2023-04-22T13:43:05.090Z,31.95
2023-04-22T13:45:32.515Z,48.00
2023-04-22T13:47:59.971Z,21.40
2023-04-22T13:50:27.638Z,28.05
2023-04-22T13:52:54.719Z,50.15
2023-04-22T13:55:26.414Z,53.53
2023-04-22T13:57:53.591Z,45.92
2023-04-22T14:00:20.881Z,21.38
2023-04-22T14:02:48.970Z,40.33
2023-04-22T14:05:16.619Z,40.78
2023-04-22T14:07:44.016Z,40.33
2023-04-22T14:10:12.869Z,35.85
2023-04-22T14:12:40.125Z,31.75
2023-04-22T14:15:10.802Z,34.17
2023-04-22T14:17:39.276Z,39.63
2023-04-22T14:20:07.462Z,35.40
2023-04-22T14:22:35.120Z,31.63
2023-04-22T14:25:02.333Z,40.00
2023-04-22T14:27:29.690Z,33.63
2023-04-22T14:29:57.238Z,34.55
2023-04-22T14:32:25.500Z,40.10
2023-04-22T14:34:52.908Z,47.50
2023-04-22T14:37:20.862Z,56.13
2023-04-22T14:39:48.574Z,57.88
2023-04-22T14:42:18.202Z,67.45
2023-04-22T14:44:45.295Z,66.07
2023-04-22T14:47:15.833Z,60.00
2023-04-22T14:49:43.625Z,56.03
2023-04-22T14:52:10.801Z,60.35
2023-04-22T14:54:38.212Z,60.00
2023-04-22T14:57:05.552Z,61.65
2023-04-22T14:59:33.214Z,58.47
2023-04-22T15:02:00.989Z,49.60
2023-04-22T15:04:28.772Z,51.28
2023-04-22T15:06:57.726Z,53.78
2023-04-22T15:09:25.488Z,47.88
2023-04-22T15:11:54.410Z,50.03
2023-04-22T15:14:21.975Z,47.45
2023-04-22T15:16:49.163Z,42.45
2023-04-22T15:19:16.581Z,40.75
2023-04-22T15:21:44.396Z,39.88
2023-04-22T15:24:11.367Z,38.38
2023-04-22T15:26:40.605Z,56.75
2023-04-22T15:29:17.785Z,39.30
2023-04-22T15:31:45.691Z,31.73
2023-04-22T15:34:13.273Z,30.45
2023-04-22T15:36:40.687Z,44.58
2023-04-22T15:39:10.356Z,49.53
2023-04-22T15:41:37.784Z,48.88
2023-04-22T15:44:12.857Z,62.03
2023-04-22T15:46:42.814Z,46.67
2023-04-22T15:49:09.961Z,35.35
2023-04-22T15:51:37.478Z,41.83
2023-04-22T15:54:04.487Z,42.08
2023-04-22T15:56:34.865Z,28.10
2023-04-22T15:59:02.298Z,37.95
2023-04-22T16:01:29.668Z,43.58
2023-04-22T16:03:57.162Z,41.70
2023-04-22T16:06:25.002Z,46.80
2023-04-22T16:08:52.706Z,33.55
2023-04-22T16:11:20.081Z,28.67
2023-04-22T16:13:48.138Z,17.38
2023-04-22T16:16:15.834Z,23.75
2023-04-22T16:18:44.364Z,19.92
2023-04-22T16:21:12.214Z,20.30
2023-04-22T16:23:39.530Z,17.98
2023-04-22T16:26:06.703Z,19.08
2023-04-22T16:28:34.013Z,15.80
2023-04-22T16:31:01.123Z,32.88
2023-04-22T16:33:28.576Z,20.58
2023-04-22T16:35:55.626Z,19.90
2023-04-22T16:38:22.724Z,25.52
2023-04-22T16:40:53.680Z,15.10
2023-04-22T16:43:20.777Z,22.35
2023-04-22T16:45:48.842Z,17.85
2023-04-22T16:48:15.989Z,22.85
2023-04-22T16:50:43.089Z,19.25
2023-04-22T16:53:11.963Z,17.30
2023-04-22T16:55:39.460Z,23.13
2023-04-22T16:58:07.009Z,20.77
2023-04-22T17:00:34.130Z,24.20
2023-04-22T17:03:01.441Z,35.47
2023-04-22T17:05:28.971Z,28.45
2023-04-22T17:07:56.192Z,42.03
2023-04-22T17:10:23.497Z,36.15
2023-04-22T17:12:53.045Z,41.25
2023-04-22T17:15:20.442Z,42.45
2023-04-22T17:17:48.224Z,56.75
2023-04-22T17:20:18.099Z,52.08
2023-04-22T17:22:45.751Z,61.25
2023-04-22T17:25:12.956Z,62.08
2023-04-22T17:27:40.428Z,72.32
2023-04-22T17:30:07.978Z,75.05
2023-04-22T17:32:35.137Z,46.75
2023-04-22T17:35:02.650Z,50.88
2023-04-22T17:37:30.195Z,57.13
2023-04-22T17:39:57.313Z,67.85
2023-04-22T17:42:32.175Z,75.40
2023-04-22T17:45:07.051Z,88.03
2023-04-22T17:47:34.633Z,91.40
2023-04-22T17:50:01.949Z,82.03
2023-04-22T17:52:29.642Z,81.63
2023-04-22T17:54:58.219Z,89.32
2023-04-22T17:57:28.391Z,87.90
2023-04-22T17:59:56.062Z,90.35
2023-04-22T18:02:24.663Z,88.43
2023-04-22T18:04:51.963Z,89.00
2023-04-22T18:07:19.285Z,93.47
2023-04-22T18:09:46.518Z,106.07
2023-04-22T18:12:14.007Z,88.05
2023-04-22T18:14:41.122Z,119.90
2023-04-22T18:17:08.351Z,98.47
2023-04-22T18:19:35.629Z,122.85
2023-04-22T18:22:03.192Z,122.00
2023-04-22T18:24:30.277Z,117.70
2023-04-22T18:26:57.765Z,132.13
2023-04-22T18:29:24.888Z,131.80
2023-04-22T18:31:52.269Z,127.95
2023-04-22T18:34:19.777Z,146.18
2023-04-22T18:36:46.903Z,153.32
2023-04-22T18:39:14.011Z,164.73
2023-04-22T18:41:42.469Z,150.18
2023-04-22T18:44:09.868Z,154.27
2023-04-22T18:46:37.627Z,145.57
2023-04-22T18:49:05.019Z,138.30
2023-04-22T18:51:32.956Z,154.27
2023-04-22T18:54:01.096Z,160.30
2023-04-22T18:56:29.998Z,163.82
2023-04-22T18:58:57.614Z,157.85
2023-04-22T19:01:24.662Z,183.45
2023-04-22T19:03:51.943Z,178.45
2023-04-22T19:06:19.037Z,174.18
2023-04-22T19:08:48.399Z,170.85
2023-04-22T19:11:16.737Z,184.68
2023-04-22T19:13:44.155Z,150.10
2023-04-22T19:16:11.495Z,155.25
2023-04-22T19:18:38.904Z,153.90
2023-04-22T19:21:07.074Z,186.95
2023-04-22T19:23:34.492Z,174.13
2023-04-22T19:26:01.983Z,196.10
2023-04-22T19:28:32.057Z,165.30
2023-04-22T19:31:05.786Z,160.65
2023-04-22T19:33:33.538Z,156.35
2023-04-22T19:36:01.442Z,167.88
2023-04-22T19:38:28.704Z,161.45
2023-04-22T19:40:56.567Z,132.73
2023-04-22T19:43:24.002Z,156.70
2023-04-22T19:45:52.021Z,152.13
2023-04-22T19:48:19.905Z,128.15
2023-04-22T19:50:48.606Z,121.45
2023-04-22T19:53:16.022Z,134.32
2023-04-22T19:55:43.368Z,130.38
2023-04-22T19:58:10.818Z,125.75
2023-04-22T20:00:39.487Z,115.85
2023-04-22T20:03:07.521Z,132.23
2023-04-22T20:05:36.961Z,124.22
2023-04-22T20:08:04.055Z,112.43
2023-04-22T20:10:31.187Z,101.30
2023-04-22T20:12:59.152Z,104.28
2023-04-22T20:15:26.528Z,91.57
2023-04-22T20:17:54.807Z,94.85
2023-04-22T20:20:25.138Z,98.40
2023-04-22T20:22:53.057Z,93.97
2023-04-22T20:25:20.586Z,100.30
2023-04-22T20:27:47.676Z,95.45
2023-04-22T20:30:14.989Z,106.93
2023-04-22T20:32:42.668Z,100.22
2023-04-22T20:35:12.049Z,102.55
2023-04-22T20:37:39.792Z,109.43
2023-04-22T20:40:08.680Z,121.25
2023-04-22T20:42:36.679Z,107.57
2023-04-22T20:45:07.826Z,118.30
2023-04-22T20:47:35.767Z,112.22
2023-04-22T20:50:04.021Z,131.95
2023-04-22T20:52:31.228Z,133.40
2023-04-22T20:54:58.637Z,125.47
2023-04-22T20:57:33.690Z,135.23
2023-04-22T21:00:01.189Z,146.05
2023-04-22T21:02:31.374Z,139.73
2023-04-22T21:04:59.703Z,142.35
2023-04-22T21:07:30.341Z,137.10
2023-04-22T21:09:58.212Z,130.38
2023-04-22T21:12:25.914Z,139.05
2023-04-22T21:14:53.723Z,131.43
2023-04-22T21:17:27.298Z,136.90
2023-04-22T21:19:57.758Z,125.30
2023-04-22T21:22:25.203Z,121.47
2023-04-22T21:24:52.510Z,120.68
2023-04-22T21:27:21.111Z,119.28
2023-04-22T21:29:49.048Z,120.82
2023-04-22T21:32:16.522Z,98.30
2023-04-22T21:34:44.613Z,102.68
2023-04-22T21:37:12.226Z,100.57
2023-04-22T21:39:39.958Z,120.43
2023-04-22T21:42:09.628Z,109.25
2023-04-22T21:44:37.347Z,122.30
2023-04-22T21:47:05.256Z,114.10
2023-04-22T21:49:32.826Z,104.78
2023-04-22T21:52:03.303Z,147.68
2023-04-22T21:54:30.876Z,145.43
2023-04-22T21:56:57.868Z,142.80
2023-04-22T21:59:25.316Z,140.60
2023-04-22T22:01:52.619Z,166.82
2023-04-22T22:04:20.424Z,155.05
2023-04-22T22:06:48.520Z,146.68
2023-04-22T22:09:16.006Z,140.02
2023-04-22T22:11:43.260Z,152.45
2023-04-22T22:14:10.702Z,124.53
2023-04-22T22:16:38.947Z,124.82
2023-04-22T22:19:06.390Z,130.70
2023-04-22T22:21:33.726Z,131.80
2023-04-22T22:24:00.941Z,140.13
2023-04-22T22:26:29.175Z,133.63
2023-04-22T22:28:56.851Z,140.60
2023-04-22T22:31:23.854Z,142.25
2023-04-22T22:33:51.392Z,144.90
2023-04-22T22:36:18.787Z,146.52
2023-04-22T22:38:45.851Z,134.50
2023-04-22T22:41:14.217Z,145.77
2023-04-22T22:43:41.286Z,139.95
2023-04-22T22:46:08.730Z,136.70
2023-04-22T22:48:35.919Z,130.68
2023-04-22T22:51:03.156Z,126.00
2023-04-22T22:53:30.346Z,129.98
2023-04-22T22:55:57.685Z,132.57
2023-04-22T22:58:25.151Z,130.88
2023-04-22T23:00:52.512Z,130.07
2023-04-22T23:03:20.035Z,131.52
2023-04-22T23:05:48.026Z,132.02
2023-04-22T23:08:15.348Z,128.15
2023-04-22T23:10:42.704Z,125.40
2023-04-22T23:13:10.047Z,109.95
2023-04-22T23:15:37.509Z,113.07
2023-04-22T23:18:04.901Z,107.85
2023-04-22T23:20:32.790Z,113.60
2023-04-22T23:22:59.919Z,110.65
2023-04-22T23:25:27.754Z,111.82
2023-04-22T23:27:55.009Z,108.20
2023-04-22T23:30:22.688Z,94.40
2023-04-22T23:32:51.148Z,95.88
2023-04-22T23:35:18.333Z,85.05
2023-04-22T23:37:45.824Z,88.05
2023-04-22T23:40:13.482Z,86.15
2023-04-22T23:42:40.863Z,92.00
2023-04-22T23:45:09.047Z,93.57
2023-04-22T23:47:36.188Z,96.78
2023-04-22T23:50:04.601Z,93.43
2023-04-22T23:52:32.055Z,92.07
2023-04-22T23:55:01.771Z,88.18
2023-04-22T23:57:29.115Z,100.80
2023-04-22T23:59:56.711Z,81.53
